Time;durP1;ratioP1;P1;durP2;ratioP2;P2;SDS_P1;SDS_P2;PMS_P1;PMS_P2;Temp;Humidity;BMP_temperature;BMP_pressure;BME280_temperature;BME280_humidity;BME280_pressure;Samples;Min_cycle;Max_cycle;Signal;HPM_P1;HPM_P2
2022/12/15 00:40:19;;;;;;;;;;;;;;;;;;4969526;28;20106;-50
2022/12/15 00:42:45;;;;;;;;;;;;;;;;;;4979801;28;19917;-50
2022/12/15 00:45:11;;;;;;;;;;;;;;;;;;4978118;28;20347;-50
2022/12/15 00:47:37;;;;;;;;;;;;;;;;;;4975624;28;19922;-50
2022/12/15 01:20:18;;;;;;;;;;;;;;;;;;4946573;28;20326;-51
2022/12/15 01:22:44;;;;;;;;;;;;;;;;;;4966165;28;19922;-50
2022/12/15 01:25:10;;;;;;;;;;;;;;;;;;4973017;28;20138;-51
2022/12/15 01:27:36;;;;;;;;;;;;;;;;;;4986901;28;20023;-50
2022/12/15 01:30:02;;;;;;;;;;;;;;;;;;4986017;28;19923;-51
2022/12/15 01:32:28;;;;;;;;;;;;;;;;;;4960913;28;19922;-51
2022/12/15 01:34:54;;;;;;;;;;;;;;;;;;4972131;28;19919;-50
2022/12/15 01:37:19;;;;;;;;;;;;;;;;;;4978008;28;19918;-51
2022/12/15 01:42:30;;;;;;;;;;;;;;;;;;4963653;28;19996;-51
2022/12/15 01:44:56;;;;;;;;;;;;;;;;;;4966058;28;20386;-51
2022/12/15 01:47:22;;;;;;;;;;;;;;;;;;4954509;28;19933;-51
2022/12/15 01:49:47;;;;;;;;;;;;;;;;;;4965243;28;19909;-50
2022/12/15 01:52:13;;;;;;;;;;;;;;;;;;4962593;28;19925;-51
2022/12/15 01:54:39;;;;;;;;;;;;;;;;;;4979491;28;19946;-51
2022/12/15 01:57:05;;;;;;;;;;;;;;;;;;4954104;28;19955;-51
2022/12/15 01:59:31;;;;;;;;;;;;;;;;;;4959357;28;19927;-51
2022/12/15 02:04:33;;;;;;;;;;;;;;;;;;5119192;23;20226;-71
2022/12/15 02:06:58;;;;;;;;;;;;;;;;;;5010858;28;19982;-70
2022/12/15 02:09:24;;;;;;;;;;;;;;;;;;5007137;28;19920;-69
2022/12/15 02:11:50;;;;;;;;;;;;;;;;;;5008692;28;19937;-71
2022/12/15 02:14:17;;;;;;;;;;;;;;;;;;5007415;28;19967;-70
2022/12/15 02:16:43;;;;;;;;;;;;;;;;;;5014262;28;20602;-71
2022/12/15 02:19:09;;;;;;;;;;;;;;;;;;5019913;28;20015;-72
2022/12/15 02:21:34;;;;;;;;;;;;;;;;;;5019278;28;19934;-72
2022/12/15 02:24:01;;;;;;;;;;;;;;;;;;5017616;28;21164;-70
2022/12/15 02:26:26;;;;;;;;;;;;;;;;;;5009101;28;20207;-71
2022/12/15 02:28:52;;;;;;;;;;;;;;;;;;5004109;28;19939;-71
2022/12/15 02:34:03;;;;;;;;;;;;;;;;;;5017817;28;19936;-70
2022/12/15 02:36:30;;;;;;;;;;;;;;;;;;5001937;28;19986;-70
2022/12/15 02:38:56;;;;;;;;;;;;;;;;;;5014361;28;19952;-68
2022/12/15 02:41:21;;;;;;;;;;;;;;;;;;5006283;28;20028;-71
2022/12/15 02:43:47;;;;;;;;;;;;;;;;;;5008576;28;19978;-69
2022/12/15 02:46:13;;;;;;;;;;;;;;;;;;5005960;28;20888;-68
2022/12/15 02:48:39;;;;;;;;;;;;;;;;;;5003803;28;20000;-69
2022/12/15 02:51:05;;;;;;;;;;;;;;;;;;4987928;28;20483;-70
2022/12/15 02:53:31;;;;;;;;;;;;;;;;;;4991008;28;19917;-70
2022/12/15 02:55:57;;;;;;;;;;;;;;;;;;4999893;28;19964;-70
2022/12/15 02:58:22;;;;;;;;;;;;;;;;;;4992296;28;20286;-70
2022/12/15 03:00:48;;;;;;;;;;;;;;;;;;5004482;28;19927;-70
2022/12/15 03:03:18;;;;;;;;;;;;;;;;;;4998359;28;19980;-69
2022/12/15 03:05:44;;;;;;;;;;;;;;;;;;4988049;28;19940;-71
2022/12/15 03:08:10;;;;;;;;;;;;;;;;;;4966746;28;19921;-69
2022/12/15 03:10:36;;;;;;;;;;;;;;;;;;4977605;28;19947;-69
2022/12/15 03:13:02;;;;;;;;;;;;;;;;;;4992563;28;20667;-68
2022/12/15 03:15:28;;;;;;;;;;;;;;;;;;4987901;28;20781;-72
2022/12/15 03:17:54;;;;;;;;;;;;;;;;;;4997525;28;19925;-73
2022/12/15 03:20:19;;;;;;;;;;;;;;;;;;4981950;28;19914;-70
2022/12/15 03:22:45;;;;;;;;;;;;;;;;;;4990662;28;19921;-69
2022/12/15 03:25:11;;;;;;;;;;;;;;;;;;4987742;28;19988;-69
2022/12/15 03:27:37;;;;;;;;;;;;;;;;;;4989246;28;20337;-69
2022/12/15 03:30:03;;;;;;;;;;;;;;;;;;5001934;28;19925;-70
2022/12/15 03:32:29;;;;;;;;;;;;;;;;;;4984462;28;20993;-73
2022/12/15 03:34:55;;;;;;;;;;;;;;;;;;4996264;28;20854;-72
2022/12/15 03:37:21;;;;;;;;;;;;;;;;;;4982021;28;19933;-69
2022/12/15 03:39:46;;;;;;;;;;;;;;;;;;4982375;28;19929;-71
2022/12/15 03:42:12;;;;;;;;;;;;;;;;;;4961343;28;19925;-70
2022/12/15 03:44:38;;;;;;;;;;;;;;;;;;4991677;28;19929;-72
2022/12/15 03:47:04;;;;;;;;;;;;;;;;;;4986887;28;19980;-71
2022/12/15 03:49:30;;;;;;;;;;;;;;;;;;4985864;28;19930;-71
2022/12/15 03:51:56;;;;;;;;;;;;;;;;;;4989092;28;19936;-71
2022/12/15 03:54:22;;;;;;;;;;;;;;;;;;4971560;28;20567;-72
2022/12/15 03:56:48;;;;;;;;;;;;;;;;;;4994353;28;19924;-71
2022/12/15 03:59:14;;;;;;;;;;;;;;;;;;4989861;28;19968;-70
2022/12/15 04:01:40;;;;;;;;;;;;;;;;;;4984855;28;21228;-71
2022/12/15 04:04:06;;;;;;;;;;;;;;;;;;4973943;28;19926;-70
2022/12/15 04:06:32;;;;;;;;;;;;;;;;;;4988695;28;19965;-73
2022/12/15 04:08:58;;;;;;;;;;;;;;;;;;4986777;28;19968;-70
2022/12/15 04:11:24;;;;;;;;;;;;;;;;;;4963027;28;19933;-67
2022/12/15 04:13:49;;;;;;;;;;;;;;;;;;4971144;28;19925;-70
2022/12/15 04:16:15;;;;;;;;;;;;;;;;;;4988231;28;19945;-70
2022/12/15 04:18:41;;;;;;;;;;;;;;;;;;4986982;28;19925;-69
2022/12/15 04:21:07;;;;;;;;;;;;;;;;;;4989767;28;19979;-69
2022/12/15 04:23:33;;;;;;;;;;;;;;;;;;4961423;28;20036;-71
2022/12/15 05:31:53;;;;;;;;;;;;;;;;;;4989924;28;19928;-72
2022/12/15 05:34:20;;;;;;;;;;;;;;;;;;4996542;28;19921;-72
2022/12/15 05:36:46;;;;;;;;;;;;;;;;;;4988675;28;24348;-68
2022/12/15 05:39:11;;;;;;;;;;;;;;;;;;4967220;28;19926;-68
2022/12/15 05:41:37;;;;;;;;;;;;;;;;;;4974485;28;19960;-73
2022/12/15 05:44:03;;;;;;;;;;;;;;;;;;4989882;28;19960;-70
2022/12/15 05:46:29;;;;;;;;;;;;;;;;;;4997554;28;19925;-72
2022/12/15 05:48:55;;;;;;;;;;;;;;;;;;4981776;28;19921;-69
2022/12/15 05:51:21;;;;;;;;;;;;;;;;;;4960035;28;19979;-68
2022/12/15 05:53:47;;;;;;;;;;;;;;;;;;4986008;28;19928;-70
2022/12/15 05:56:13;;;;;;;;;;;;;;;;;;4977067;28;19949;-69
2022/12/15 05:58:39;;;;;;;;;;;;;;;;;;4988858;28;20555;-71
2022/12/15 06:01:04;;;;;;;;;;;;;;;;;;4945192;28;19925;-68
2022/12/15 06:03:30;;;;;;;;;;;;;;;;;;4974500;28;20351;-71
2022/12/15 06:05:57;;;;;;;;;;;;;;;;;;4983661;28;19929;-72
2022/12/15 06:08:22;;;;;;;;;;;;;;;;;;4977587;28;19930;-68
2022/12/15 06:10:48;;;;;;;;;;;;;;;;;;4977190;28;20324;-69
2022/12/15 06:13:14;;;;;;;;;;;;;;;;;;4972566;28;19930;-71
2022/12/15 06:15:40;;;;;;;;;;;;;;;;;;4982375;28;19987;-72
2022/12/15 06:18:06;;;;;;;;;;;;;;;;;;4987284;28;19917;-68
2022/12/15 06:20:32;;;;;;;;;;;;;;;;;;4983282;28;19935;-71
2022/12/15 06:22:58;;;;;;;;;;;;;;;;;;4996500;28;20439;-73
2022/12/15 06:25:24;;;;;;;;;;;;;;;;;;4979539;28;19922;-72
2022/12/15 06:27:49;;;;;;;;;;;;;;;;;;4992727;28;19970;-74
2022/12/15 06:30:15;;;;;;;;;;;;;;;;;;4986831;28;19925;-71
2022/12/15 06:32:41;;;;;;;;;;;;;;;;;;4989999;28;20348;-72
2022/12/15 06:35:07;;;;;;;;;;;;;;;;;;4978757;28;20382;-71
2022/12/15 06:37:33;;;;;;;;;;;;;;;;;;4987798;28;20301;-71
2022/12/15 06:39:59;;;;;;;;;;;;;;;;;;4997583;28;19925;-73
2022/12/15 06:42:25;;;;;;;;;;;;;;;;;;5003029;28;20489;-72
2022/12/15 06:44:51;;;;;;;;;;;;;;;;;;4997739;28;20008;-69
2022/12/15 06:47:17;;;;;;;;;;;;;;;;;;4989594;28;20518;-71
2022/12/15 06:49:43;;;;;;;;;;;;;;;;;;4995928;28;19932;-72
2022/12/15 06:52:09;;;;;;;;;;;;;;;;;;4972351;28;19975;-69
2022/12/15 06:54:34;;;;;;;;;;;;;;;;;;5002361;28;19932;-71
2022/12/15 06:57:00;;;;;;;;;;;;;;;;;;4993738;28;20257;-73
2022/12/15 06:59:26;;;;;;;;;;;;;;;;;;4996497;28;19921;-68
2022/12/15 07:01:52;;;;;;;;;;;;;;;;;;4977446;28;19921;-69
2022/12/15 07:04:18;;;;;;;;;;;;;;;;;;4988251;28;20028;-71
2022/12/15 07:06:44;;;;;;;;;;;;;;;;;;4974715;28;19994;-72
2022/12/15 07:09:10;;;;;;;;;;;;;;;;;;4972903;28;19925;-70
2022/12/15 07:11:36;;;;;;;;;;;;;;;;;;4986059;28;19960;-69
2022/12/15 07:14:02;;;;;;;;;;;;;;;;;;4986535;28;19922;-68
2022/12/15 07:16:27;;;;;;;;;;;;;;;;;;4982386;28;19964;-73
2022/12/15 07:18:53;;;;;;;;;;;;;;;;;;4982371;28;19975;-74
2022/12/15 07:21:19;;;;;;;;;;;;;;;;;;4994279;28;20408;-73
2022/12/15 07:23:45;;;;;;;;;;;;;;;;;;4983169;28;19936;-73
2022/12/15 07:26:11;;;;;;;;;;;;;;;;;;4979470;28;21102;-70
2022/12/15 07:28:37;;;;;;;;;;;;;;;;;;4992052;28;19935;-74
2022/12/15 07:31:03;;;;;;;;;;;;;;;;;;4974204;28;19925;-71
2022/12/15 07:33:29;;;;;;;;;;;;;;;;;;4994151;28;20386;-70
2022/12/15 07:35:55;;;;;;;;;;;;;;;;;;4977665;28;20576;-69
2022/12/15 07:38:20;;;;;;;;;;;;;;;;;;4986026;28;19917;-71
2022/12/15 07:40:47;;;;;;;;;;;;;;;;;;4994358;28;19925;-69
2022/12/15 07:43:13;;;;;;;;;;;;;;;;;;4984199;28;20373;-72
2022/12/15 07:45:39;;;;;;;;;;;;;;;;;;4987610;28;19968;-72
2022/12/15 07:48:05;;;;;;;;;;;;;;;;;;4992586;28;20338;-73
2022/12/15 07:50:31;;;;;;;;;;;;;;;;;;4995989;28;20040;-68
2022/12/15 07:52:57;;;;;;;;;;;;;;;;;;4986979;28;19921;-67
2022/12/15 07:55:23;;;;;;;;;;;;;;;;;;4992077;28;19936;-72
2022/12/15 07:57:49;;;;;;;;;;;;;;;;;;4993121;28;20615;-72
2022/12/15 08:00:15;;;;;;;;;;;;;;;;;;4966570;28;20000;-71
2022/12/15 08:02:41;;;;;;;;;;;;;;;;;;4987138;28;19927;-74
2022/12/15 08:05:07;;;;;;;;;;;;;;;;;;4982473;28;20016;-72
2022/12/15 08:07:33;;;;;;;;;;;;;;;;;;4988679;28;20409;-73
2022/12/15 08:09:58;;;;;;;;;;;;;;;;;;4992812;28;19948;-72
2022/12/15 08:12:24;;;;;;;;;;;;;;;;;;4980371;28;19926;-72
2022/12/15 08:14:50;;;;;;;;;;;;;;;;;;4987998;28;19924;-67
2022/12/15 08:17:16;;;;;;;;;;;;;;;;;;4985429;28;20398;-70
2022/12/15 08:19:42;;;;;;;;;;;;;;;;;;4991487;28;20362;-72
2022/12/15 08:22:08;;;;;;;;;;;;;;;;;;4994802;28;19922;-70
2022/12/15 08:24:34;;;;;;;;;;;;;;;;;;4990165;28;21386;-71
2022/12/15 08:27:00;;;;;;;;;;;;;;;;;;4986826;28;19925;-71
2022/12/15 08:29:25;;;;;;;;;;;;;;;;;;4977113;28;20273;-70
2022/12/15 08:31:51;;;;;;;;;;;;;;;;;;4998130;28;19925;-72
2022/12/15 08:34:17;;;;;;;;;;;;;;;;;;4985363;28;19921;-72
2022/12/15 08:36:43;;;;;;;;;;;;;;;;;;5000493;28;19981;-72
2022/12/15 08:39:09;;;;;;;;;;;;;;;;;;4998668;28;20599;-71
2022/12/15 08:41:35;;;;;;;;;;;;;;;;;;4987217;28;19929;-72
2022/12/15 08:44:01;;;;;;;;;;;;;;;;;;4997816;28;19948;-72
2022/12/15 08:46:27;;;;;;;;;;;;;;;;;;4991337;28;20367;-72
2022/12/15 08:48:53;;;;;;;;;;;;;;;;;;4981624;28;19928;-73
2022/12/15 08:51:18;;;;;;;;;;;;;;;;;;5000420;28;20461;-69
2022/12/15 08:53:44;;;;;;;;;;;;;;;;;;5004174;28;19917;-72
2022/12/15 08:56:11;;;;;;;;;;;;;;;;;;4985483;28;19917;-69
2022/12/15 08:58:36;;;;;;;;;;;;;;;;;;4996592;28;19980;-73
2022/12/15 09:01:02;;;;;;;;;;;;;;;;;;4989601;28;19921;-70
2022/12/15 09:03:28;;;;;;;;;;;;;;;;;;4989861;28;19929;-67
2022/12/15 09:05:56;;;;;;;;;;;;;;;;;;4987104;28;19925;-69
2022/12/15 09:08:22;;;;;;;;;;;;;;;;;;4965701;28;20115;-70
2022/12/15 09:10:48;;;;;;;;;;;;;;;;;;4984155;28;20329;-68
2022/12/15 09:13:14;;;;;;;;;;;;;;;;;;4985231;28;19925;-69
2022/12/15 09:15:42;;;;;;;;;;;;;;;;;;4972495;28;19941;-69
2022/12/15 09:18:08;;;;;;;;;;;;;;;;;;5003942;28;19971;-70
2022/12/15 09:20:33;;;;;;;;;;;;;;;;;;4989578;28;19925;-71
2022/12/15 09:22:59;;;;;;;;;;;;;;;;;;5001777;28;19918;-72
2022/12/15 09:25:25;;;;;;;;;;;;;;;;;;4993033;28;19922;-71
2022/12/15 09:27:51;;;;;;;;;;;;;;;;;;5003914;28;19940;-71
2022/12/15 09:30:18;;;;;;;;;;;;;;;;;;5001387;28;19932;-73
2022/12/15 09:32:43;;;;;;;;;;;;;;;;;;5010438;28;19924;-71
2022/12/15 09:35:09;;;;;;;;;;;;;;;;;;5002546;28;20366;-73
2022/12/15 09:37:35;;;;;;;;;;;;;;;;;;4997441;28;19914;-70
2022/12/15 09:40:02;;;;;;;;;;;;;;;;;;5003087;28;20442;-71
2022/12/15 09:42:28;;;;;;;;;;;;;;;;;;5002744;28;19925;-74
2022/12/15 09:44:54;;;;;;;;;;;;;;;;;;5001642;28;19933;-71
2022/12/15 09:47:20;;;;;;;;;;;;;;;;;;5006250;28;19971;-72
2022/12/15 09:49:46;;;;;;;;;;;;;;;;;;5002949;28;19925;-73
2022/12/15 09:52:12;;;;;;;;;;;;;;;;;;4993623;28;20297;-72
2022/12/15 09:54:40;;;;;;;;;;;;;;;;;;4994534;28;19957;-73
2022/12/15 09:57:07;;;;;;;;;;;;;;;;;;5004204;28;19921;-71
2022/12/15 09:59:32;;;;;;;;;;;;;;;;;;4996553;28;20405;-72
2022/12/15 10:01:58;;;;;;;;;;;;;;;;;;4985914;28;20425;-73
2022/12/15 10:04:24;;;;;;;;;;;;;;;;;;4990908;28;19932;-69
2022/12/15 10:06:50;;;;;;;;;;;;;;;;;;4998905;28;19931;-74
2022/12/15 10:09:17;;;;;;;;;;;;;;;;;;4996332;28;20217;-73
2022/12/15 10:11:43;;;;;;;;;;;;;;;;;;4989539;28;20194;-69
2022/12/15 10:14:08;;;;;;;;;;;;;;;;;;4966931;28;20640;-70
2022/12/15 10:16:34;;;;;;;;;;;;;;;;;;4995067;28;19917;-71
2022/12/15 10:19:00;;;;;;;;;;;;;;;;;;5002681;28;19929;-71
2022/12/15 10:21:26;;;;;;;;;;;;;;;;;;4991883;28;20235;-68
2022/12/15 10:23:52;;;;;;;;;;;;;;;;;;4992025;28;19935;-70
2022/12/15 10:26:18;;;;;;;;;;;;;;;;;;4994244;28;20302;-70
2022/12/15 10:28:44;;;;;;;;;;;;;;;;;;4991495;28;19917;-72
2022/12/15 10:31:10;;;;;;;;;;;;;;;;;;4996708;28;19947;-70
2022/12/15 10:33:36;;;;;;;;;;;;;;;;;;4988997;28;20974;-72
2022/12/15 10:36:02;;;;;;;;;;;;;;;;;;5002030;28;19921;-72
2022/12/15 10:38:28;;;;;;;;;;;;;;;;;;4996004;28;20008;-70
2022/12/15 10:40:54;;;;;;;;;;;;;;;;;;4999067;28;19979;-73
2022/12/15 10:43:19;;;;;;;;;;;;;;;;;;4978406;28;21808;-69
2022/12/15 10:45:45;;;;;;;;;;;;;;;;;;4993472;28;19925;-71
2022/12/15 10:48:11;;;;;;;;;;;;;;;;;;5000821;28;20526;-70
2022/12/15 10:50:37;;;;;;;;;;;;;;;;;;4990895;28;19932;-73
2022/12/15 10:53:03;;;;;;;;;;;;;;;;;;4997345;28;19921;-72
2022/12/15 10:55:29;;;;;;;;;;;;;;;;;;4991518;28;19925;-72
2022/12/15 10:57:54;;;;;;;;;;;;;;;;;;4990659;28;19926;-69
2022/12/15 11:00:23;;;;;;;;;;;;;;;;;;4996405;28;20416;-70
2022/12/15 11:02:49;;;;;;;;;;;;;;;;;;4982834;28;19925;-72
2022/12/15 11:05:15;;;;;;;;;;;;;;;;;;4964485;28;19937;-72
2022/12/15 11:07:41;;;;;;;;;;;;;;;;;;4991161;28;19932;-72
2022/12/15 11:10:07;;;;;;;;;;;;;;;;;;4983882;28;20294;-71
2022/12/15 11:12:51;;;;;;;;;;;;;;;;;;4981135;28;19930;-70
2022/12/15 11:15:17;;;;;;;;;;;;;;;;;;4994814;28;19971;-73
2022/12/15 11:17:43;;;;;;;;;;;;;;;;;;4993336;28;20031;-72
2022/12/15 11:20:10;;;;;;;;;;;;;;;;;;4983954;28;19925;-70
2022/12/15 11:22:35;;;;;;;;;;;;;;;;;;4980780;28;19929;-72
2022/12/15 11:25:01;;;;;;;;;;;;;;;;;;4988545;28;19929;-72
2022/12/15 11:27:27;;;;;;;;;;;;;;;;;;4990700;28;20428;-72
2022/12/15 11:29:54;;;;;;;;;;;;;;;;;;4981613;28;20027;-72
2022/12/15 11:32:20;;;;;;;;;;;;;;;;;;4986198;28;19924;-73
2022/12/15 11:34:45;;;;;;;;;;;;;;;;;;4986123;28;20318;-72
2022/12/15 11:37:11;;;;;;;;;;;;;;;;;;4985384;28;19929;-72
2022/12/15 11:39:37;;;;;;;;;;;;;;;;;;4992818;28;19917;-72
2022/12/15 11:42:03;;;;;;;;;;;;;;;;;;4990537;28;20354;-73
2022/12/15 11:44:29;;;;;;;;;;;;;;;;;;4999095;28;19968;-72
2022/12/15 11:46:56;;;;;;;;;;;;;;;;;;4996833;28;22267;-72
2022/12/15 11:49:22;;;;;;;;;;;;;;;;;;4983254;28;19928;-70
2022/12/15 11:51:48;;;;;;;;;;;;;;;;;;4992727;28;19960;-71
2022/12/15 11:54:15;;;;;;;;;;;;;;;;;;4988512;28;20038;-70
2022/12/15 11:56:41;;;;;;;;;;;;;;;;;;4993471;28;19925;-70
2022/12/15 11:59:07;;;;;;;;;;;;;;;;;;4982992;28;19929;-69
2022/12/15 12:01:33;;;;;;;;;;;;;;;;;;4989831;28;20059;-72
2022/12/15 12:03:59;;;;;;;;;;;;;;;;;;4998144;28;19936;-68
2022/12/15 12:06:24;;;;;;;;;;;;;;;;;;4997142;28;20103;-73
2022/12/15 12:08:50;;;;;;;;;;;;;;;;;;4999634;28;20275;-71
2022/12/15 12:11:16;;;;;;;;;;;;;;;;;;4998073;28;19925;-73
2022/12/15 12:13:42;;;;;;;;;;;;;;;;;;4989491;28;19917;-72
2022/12/15 12:16:08;;;;;;;;;;;;;;;;;;4980100;28;19926;-71
2022/12/15 12:18:34;;;;;;;;;;;;;;;;;;4992785;28;19929;-71
2022/12/15 12:21:00;;;;;;;;;;;;;;;;;;4974193;28;19964;-72
2022/12/15 12:23:26;;;;;;;;;;;;;;;;;;4978718;28;20293;-71
2022/12/15 12:25:51;;;;;;;;;;;;;;;;;;4977612;28;20045;-71
2022/12/15 12:28:17;;;;;;;;;;;;;;;;;;4986447;28;19925;-71
2022/12/15 12:30:43;;;;;;;;;;;;;;;;;;4987741;28;19940;-68
2022/12/15 12:33:09;;;;;;;;;;;;;;;;;;4987612;28;19925;-71
2022/12/15 12:35:36;;;;;;;;;;;;;;;;;;4957602;28;19995;-71
2022/12/15 12:38:02;;;;;;;;;;;;;;;;;;4984736;28;19921;-71
2022/12/15 12:40:28;;;;;;;;;;;;;;;;;;4980844;28;19949;-69
2022/12/15 12:42:54;;;;;;;;;;;;;;;;;;4995418;28;19929;-72
2022/12/15 12:45:19;;;;;;;;;;;;;;;;;;4979678;28;20001;-71
2022/12/15 12:47:45;;;;;;;;;;;;;;;;;;4978201;28;20302;-68
2022/12/15 12:50:11;;;;;;;;;;;;;;;;;;4982531;28;19972;-70
2022/12/15 12:52:37;;;;;;;;;;;;;;;;;;4981118;28;19921;-71
2022/12/15 12:55:03;;;;;;;;;;;;;;;;;;4943249;28;20646;-73
2022/12/15 12:57:29;;;;;;;;;;;;;;;;;;4968705;28;20381;-69
2022/12/15 12:59:55;;;;;;;;;;;;;;;;;;4966702;28;19929;-68
2022/12/15 13:02:23;;;;;;;;;;;;;;;;;;4941361;28;21232;-73
2022/12/15 13:04:49;;;;;;;;;;;;;;;;;;4982812;28;19929;-73
2022/12/15 13:07:15;;;;;;;;;;;;;;;;;;4982201;28;20461;-71
2022/12/15 13:09:40;;;;;;;;;;;;;;;;;;4989449;28;19925;-72
2022/12/15 13:12:06;;;;;;;;;;;;;;;;;;4985098;28;19921;-72
2022/12/15 13:14:32;;;;;;;;;;;;;;;;;;4967501;28;19967;-70
2022/12/15 13:16:58;;;;;;;;;;;;;;;;;;4965533;28;20955;-71
2022/12/15 13:19:24;;;;;;;;;;;;;;;;;;4968329;28;19926;-69
2022/12/15 13:21:50;;;;;;;;;;;;;;;;;;4984810;28;20493;-72
2022/12/15 13:24:16;;;;;;;;;;;;;;;;;;4972606;28;20048;-72
2022/12/15 13:26:41;;;;;;;;;;;;;;;;;;4973285;28;19925;-72
2022/12/15 13:29:07;;;;;;;;;;;;;;;;;;4988330;28;19928;-72
2022/12/15 13:31:33;;;;;;;;;;;;;;;;;;4988730;28;20385;-71
2022/12/15 13:33:59;;;;;;;;;;;;;;;;;;4977521;28;20308;-72
2022/12/15 13:36:25;;;;;;;;;;;;;;;;;;4985611;28;20250;-72
2022/12/15 13:38:51;;;;;;;;;;;;;;;;;;4951840;28;19929;-70
2022/12/15 13:41:17;;;;;;;;;;;;;;;;;;4976048;28;19921;-72
2022/12/15 13:43:43;;;;;;;;;;;;;;;;;;4986956;28;19921;-71
2022/12/15 13:46:09;;;;;;;;;;;;;;;;;;4987112;28;19933;-71
2022/12/15 13:48:35;;;;;;;;;;;;;;;;;;4976246;28;20366;-71
2022/12/15 13:51:02;;;;;;;;;;;;;;;;;;4970495;28;19925;-70
2022/12/15 13:53:28;;;;;;;;;;;;;;;;;;4959636;28;19926;-72
2022/12/15 13:55:53;;;;;;;;;;;;;;;;;;4956728;28;20024;-73
2022/12/15 13:58:19;;;;;;;;;;;;;;;;;;4975986;28;19932;-71
2022/12/15 14:00:45;;;;;;;;;;;;;;;;;;4985630;28;19976;-70
2022/12/15 14:03:11;;;;;;;;;;;;;;;;;;4982271;28;20386;-68
2022/12/15 14:05:38;;;;;;;;;;;;;;;;;;4996380;28;20024;-70
2022/12/15 14:08:03;;;;;;;;;;;;;;;;;;4990705;28;19922;-71
2022/12/15 14:10:29;;;;;;;;;;;;;;;;;;4986090;28;19932;-69
2022/12/15 14:12:55;;;;;;;;;;;;;;;;;;4976354;28;20035;-72
2022/12/15 14:15:21;;;;;;;;;;;;;;;;;;4987208;28;19965;-72
2022/12/15 14:17:47;;;;;;;;;;;;;;;;;;4974730;28;20006;-68
2022/12/15 14:20:13;;;;;;;;;;;;;;;;;;4970790;28;20671;-69
2022/12/15 14:22:39;;;;;;;;;;;;;;;;;;4982558;28;20956;-71
2022/12/15 14:25:05;;;;;;;;;;;;;;;;;;4994361;28;19936;-73
2022/12/15 14:27:30;;;;;;;;;;;;;;;;;;4965424;28;19925;-69
2022/12/15 14:29:56;;;;;;;;;;;;;;;;;;4981524;28;19928;-70
2022/12/15 14:32:22;;;;;;;;;;;;;;;;;;4981695;28;20832;-70
2022/12/15 14:34:49;;;;;;;;;;;;;;;;;;4965979;28;19973;-72
2022/12/15 14:37:15;;;;;;;;;;;;;;;;;;4991744;28;19921;-72
2022/12/15 14:39:42;;;;;;;;;;;;;;;;;;4982722;28;21266;-74
2022/12/15 14:42:07;;;;;;;;;;;;;;;;;;4991658;28;19944;-72
2022/12/15 14:44:33;;;;;;;;;;;;;;;;;;4978502;28;19925;-72
2022/12/15 14:46:59;;;;;;;;;;;;;;;;;;4989382;28;19925;-67
2022/12/15 14:49:25;;;;;;;;;;;;;;;;;;4992792;28;19921;-69
2022/12/15 14:51:51;;;;;;;;;;;;;;;;;;4989751;28;19921;-70
2022/12/15 14:54:17;;;;;;;;;;;;;;;;;;4998826;28;19928;-71
2022/12/15 14:56:43;;;;;;;;;;;;;;;;;;4984185;28;19922;-70
2022/12/15 14:59:08;;;;;;;;;;;;;;;;;;4993304;28;20500;-72
2022/12/15 15:01:34;;;;;;;;;;;;;;;;;;4991975;28;19921;-70
2022/12/15 15:04:00;;;;;;;;;;;;;;;;;;4993707;28;19983;-74
2022/12/15 15:06:26;;;;;;;;;;;;;;;;;;4988872;28;20468;-73
2022/12/15 15:08:52;;;;;;;;;;;;;;;;;;4991093;28;19924;-69
2022/12/15 15:11:18;;;;;;;;;;;;;;;;;;4978584;28;19987;-71
2022/12/15 15:13:44;;;;;;;;;;;;;;;;;;4982346;28;19924;-73
2022/12/15 15:16:10;;;;;;;;;;;;;;;;;;4998978;28;19929;-69
2022/12/15 15:18:35;;;;;;;;;;;;;;;;;;4988602;28;20313;-72
2022/12/15 15:21:02;;;;;;;;;;;;;;;;;;4990811;28;20020;-72
2022/12/15 15:23:28;;;;;;;;;;;;;;;;;;4996205;28;19995;-71
2022/12/15 15:25:53;;;;;;;;;;;;;;;;;;4993594;28;20485;-72
2022/12/15 15:28:20;;;;;;;;;;;;;;;;;;4995370;28;20275;-71
2022/12/15 15:30:46;;;;;;;;;;;;;;;;;;4985032;28;19928;-70
2022/12/15 15:33:12;;;;;;;;;;;;;;;;;;4977580;28;19921;-69
2022/12/15 15:35:38;;;;;;;;;;;;;;;;;;4994898;28;19933;-73
2022/12/15 15:38:04;;;;;;;;;;;;;;;;;;4990222;28;19922;-70
2022/12/15 15:40:30;;;;;;;;;;;;;;;;;;4990840;28;19925;-70
2022/12/15 15:42:55;;;;;;;;;;;;;;;;;;4988262;28;20314;-72
2022/12/15 15:45:21;;;;;;;;;;;;;;;;;;4991434;28;19968;-70
2022/12/15 15:47:47;;;;;;;;;;;;;;;;;;4997279;28;19925;-72
2022/12/15 15:50:13;;;;;;;;;;;;;;;;;;4975131;28;19925;-73
2022/12/15 15:52:39;;;;;;;;;;;;;;;;;;5000904;28;20362;-72
2022/12/15 15:55:05;;;;;;;;;;;;;;;;;;4993275;28;19925;-73
2022/12/15 15:57:31;;;;;;;;;;;;;;;;;;4997641;28;19922;-71
2022/12/15 15:59:57;;;;;;;;;;;;;;;;;;4999350;28;20571;-72
2022/12/15 16:02:23;;;;;;;;;;;;;;;;;;4965122;28;20321;-70
2022/12/15 16:04:49;;;;;;;;;;;;;;;;;;4958131;28;20064;-71
2022/12/15 16:07:15;;;;;;;;;;;;;;;;;;4989200;28;19933;-72
2022/12/15 16:09:41;;;;;;;;;;;;;;;;;;4992486;28;20449;-72
2022/12/15 16:12:07;;;;;;;;;;;;;;;;;;4992557;28;19925;-69
2022/12/15 16:14:32;;;;;;;;;;;;;;;;;;4983315;28;19925;-69
2022/12/15 16:16:58;;;;;;;;;;;;;;;;;;4977511;28;20042;-70
2022/12/15 16:19:27;;;;;;;;;;;;;;;;;;4981421;28;20311;-70
2022/12/15 16:21:53;;;;;;;;;;;;;;;;;;4978139;28;20316;-69
2022/12/15 16:24:19;;;;;;;;;;;;;;;;;;4978401;28;19930;-71
2022/12/15 16:26:46;;;;;;;;;;;;;;;;;;4978339;28;20404;-69
2022/12/15 16:29:11;;;;;;;;;;;;;;;;;;4983865;28;19929;-69
2022/12/15 16:31:38;;;;;;;;;;;;;;;;;;4994408;28;20280;-70
2022/12/15 16:34:05;;;;;;;1.10;1.10;;;;;;;;;;4997240;28;20859;-71
2022/12/15 16:36:31;;;;;;;1.00;1.00;;;;;;;;;;4975571;28;20941;-69
2022/12/15 16:38:57;;;;;;;1.03;1.03;;;;;;;;;;4962806;28;20262;-70
2022/12/15 16:41:26;;;;;;;1.20;1.20;;;;;;;;;;4966092;28;20231;-74
2022/12/15 16:43:52;;;;;;;1.03;1.03;;;;;;;;;;4966573;28;20266;-69
2022/12/15 16:46:19;;;;;;;1.00;1.00;;;;;;;;;;4982512;28;20219;-70
2022/12/15 16:48:44;;;;;;;0.90;0.90;;;;;;;;;;4985517;28;20256;-69
2022/12/15 16:51:17;;;;;;;1.07;1.07;;;;;;;;;;4974839;28;20311;-73
2022/12/15 16:53:43;;;;;;;1.00;1.00;;;;;;;;;;4976086;28;20256;-71
2022/12/15 16:56:10;;;;;;;1.10;1.10;;;;;;;;;;4957477;28;20228;-70
2022/12/15 16:58:36;;;;;;;0.90;0.90;;;;;;;;;;4965524;28;20434;-71
2022/12/15 17:01:02;;;;;;;0.70;0.70;;;;;;;;;;4982229;28;20488;-73
2022/12/15 17:03:28;;;;;;;0.77;0.77;;;;;;;;;;4968048;28;20518;-69
2022/12/15 17:05:58;;;;;;;0.70;0.70;;;;;;;;;;4977449;28;20422;-71
2022/12/15 17:08:26;;;;;;;1.00;1.00;;;;;;;;;;4968905;28;20418;-71
2022/12/15 17:10:52;;;;;;;1.20;1.20;;;;;;;;;;4962937;28;21664;-68
2022/12/15 17:13:28;;;;;;;1.20;1.20;;;;;;;;;;4963328;28;22134;-71
2022/12/15 17:15:54;;;;;;;1.40;1.40;;;;;;;;;;4970265;28;20926;-68
2022/12/15 17:18:20;;;;;;;1.67;1.65;;;;;;;;;;4960390;28;20472;-70
2022/12/15 17:20:46;;;;;;;1.30;1.30;;;;;;;;;;4978182;28;20925;-68
2022/12/15 17:23:15;;;;;;;1.42;1.42;;;;;;;;;;4975086;28;21913;-71
2022/12/15 17:25:43;;;;;;;1.40;1.40;;;;;;;;;;4984731;28;20940;-74
2022/12/15 17:28:13;;;;;;;1.30;1.30;;;;;;;;;;4959291;28;20423;-71
2022/12/15 17:30:39;;;;;;;1.10;1.10;;;;;;;;;;4971918;28;20932;-69
2022/12/15 17:33:14;;;;;;;1.23;1.23;;;;;;;;;;4958106;28;20449;-70
2022/12/15 17:35:40;;;;;;;1.50;1.50;;;;;;;;;;4952489;28;21023;-69
2022/12/15 17:38:06;;;;;;;1.30;1.30;;;;;;;;;;4953519;28;20422;-72
2022/12/15 17:40:32;;;;;;;1.10;1.10;;;;;;;;;;4977798;28;20627;-73
2022/12/15 17:42:58;;;;;;;0.98;0.98;;;;;;;;;;4975963;28;20510;-70
2022/12/15 17:45:24;;;;;;;1.15;1.15;;;;;;;;;;4970229;28;20978;-72
2022/12/15 17:47:50;;;;;;;1.02;1.02;;;;;;;;;;4979002;28;20437;-69
2022/12/15 17:50:17;;;;;;;1.00;1.00;;;;;;;;;;4959984;28;20424;-74
2022/12/15 17:52:43;;;;;;;0.83;0.83;;;;;;;;;;4980833;28;20417;-71
2022/12/15 17:55:19;;;;;;;1.00;1.00;;;;;;;;;;4981413;28;20832;-67
2022/12/15 17:57:46;;;;;;;1.30;1.30;;;;;;;;;;4974352;28;20451;-73
2022/12/15 18:00:32;;;;;;;1.20;1.20;;;;;;;;;;4970779;28;20416;-69
2022/12/15 18:02:58;;;;;;;1.10;1.10;;;;;;;;;;4977616;28;20418;-69
2022/12/15 18:05:25;;;;;;;0.83;0.83;;;;;;;;;;4986514;28;20482;-72
2022/12/15 18:07:52;;;;;;;1.10;1.10;;;;;;;;;;4995960;28;20426;-68
2022/12/15 18:10:37;;;;;;;1.00;1.00;;;;;;;;;;4977075;28;20916;-70
2022/12/15 18:13:03;;;;;;;0.85;0.85;;;;;;;;;;4963378;28;20423;-71
2022/12/15 18:15:30;;;;;;;1.00;1.00;;;;;;;;;;4969047;28;20490;-68
2022/12/15 18:17:56;;;;;;;0.90;0.90;;;;;;;;;;4968976;28;21090;-70
2022/12/15 18:20:22;;;;;;;0.90;0.90;;;;;;;;;;4948157;28;20434;-70
2022/12/15 18:22:48;;;;;;;1.00;1.00;;;;;;;;;;4929448;28;21168;-72
2022/12/15 18:25:24;;;;;;;0.90;0.90;;;;;;;;;;4957698;28;20427;-71
2022/12/15 18:27:51;;;;;;;0.90;0.90;;;;;;;;;;4984927;28;20415;-71
2022/12/15 18:30:18;;;;;;;1.00;1.00;;;;;;;;;;4985625;28;20416;-69
2022/12/15 18:32:44;;;;;;;0.90;0.90;;;;;;;;;;4980348;28;20461;-72
2022/12/15 18:35:17;;;;;;;1.00;1.00;;;;;;;;;;4983304;28;20449;-73
2022/12/15 18:37:43;;;;;;;0.90;0.90;;;;;;;;;;4965782;28;20757;-70
2022/12/15 18:40:14;;;;;;;1.00;1.00;;;;;;;;;;4964355;28;20414;-68
2022/12/15 18:42:40;;;;;;;0.80;0.80;;;;;;;;;;4974680;28;20422;-73